sensor_id;sensor_type;location;lat;lon;timestamp;P1;durP1;ratioP1;P2;durP2;ratioP2
7969;SDS011;4030;52.362;9.206;2023-05-16T00:00:16;1.98;;;1.60;;
7969;SDS011;4030;52.362;9.206;2023-05-16T00:02:42;1.90;;;1.70;;
7969;SDS011;4030;52.362;9.206;2023-05-16T00:05:08;2.08;;;1.50;;
7969;SDS011;4030;52.362;9.206;2023-05-16T00:07:38;2.45;;;1.70;;
7969;SDS011;4030;52.362;9.206;2023-05-16T00:10:06;1.85;;;1.33;;
7969;SDS011;4030;52.362;9.206;2023-05-16T00:12:32;2.35;;;1.65;;
7969;SDS011;4030;52.362;9.206;2023-05-16T00:15:00;1.50;;;1.40;;
7969;SDS011;4030;52.362;9.206;2023-05-16T00:17:27;2.30;;;1.40;;
7969;SDS011;4030;52.362;9.206;2023-05-16T00:19:53;1.73;;;1.20;;
7969;SDS011;4030;52.362;9.206;2023-05-16T00:22:22;1.63;;;1.30;;
7969;SDS011;4030;52.362;9.206;2023-05-16T00:24:48;1.80;;;1.30;;
7969;SDS011;4030;52.362;9.206;2023-05-16T00:27:14;1.95;;;1.30;;
7969;SDS011;4030;52.362;9.206;2023-05-16T00:29:40;2.30;;;1.17;;
7969;SDS011;4030;52.362;9.206;2023-05-16T00:32:06;1.23;;;1.13;;
7969;SDS011;4030;52.362;9.206;2023-05-16T00:34:32;1.20;;;1.10;;
7969;SDS011;4030;52.362;9.206;2023-05-16T00:36:59;1.20;;;1.10;;
7969;SDS011;4030;52.362;9.206;2023-05-16T00:39:25;1.00;;;1.00;;
7969;SDS011;4030;52.362;9.206;2023-05-16T00:41:51;1.50;;;1.10;;
7969;SDS011;4030;52.362;9.206;2023-05-16T00:44:17;1.40;;;1.10;;
7969;SDS011;4030;52.362;9.206;2023-05-16T00:46:43;2.50;;;1.13;;
7969;SDS011;4030;52.362;9.206;2023-05-16T00:49:09;1.20;;;1.02;;
7969;SDS011;4030;52.362;9.206;2023-05-16T00:51:36;1.48;;;1.02;;
7969;SDS011;4030;52.362;9.206;2023-05-16T00:54:03;1.83;;;1.27;;
7969;SDS011;4030;52.362;9.206;2023-05-16T00:56:30;1.42;;;1.10;;
7969;SDS011;4030;52.362;9.206;2023-05-16T00:58:56;2.35;;;1.40;;
7969;SDS011;4030;52.362;9.206;2023-05-16T01:01:22;1.33;;;1.00;;
7969;SDS011;4030;52.362;9.206;2023-05-16T01:03:51;1.33;;;1.02;;
7969;SDS011;4030;52.362;9.206;2023-05-16T01:06:17;3.00;;;1.10;;
7969;SDS011;4030;52.362;9.206;2023-05-16T01:08:43;1.88;;;1.10;;
7969;SDS011;4030;52.362;9.206;2023-05-16T01:17:07;1.80;;;1.02;;
7969;SDS011;4030;52.362;9.206;2023-05-16T01:22:28;2.20;;;1.10;;
7969;SDS011;4030;52.362;9.206;2023-05-16T01:28:46;3.00;;;1.10;;
7969;SDS011;4030;52.362;9.206;2023-05-16T01:31:15;1.42;;;1.00;;
7969;SDS011;4030;52.362;9.206;2023-05-16T01:33:41;1.58;;;1.00;;
7969;SDS011;4030;52.362;9.206;2023-05-16T01:36:20;1.40;;;1.02;;
7969;SDS011;4030;52.362;9.206;2023-05-16T01:42:00;2.00;;;0.98;;
7969;SDS011;4030;52.362;9.206;2023-05-16T01:44:36;1.50;;;0.93;;
7969;SDS011;4030;52.362;9.206;2023-05-16T01:47:13;2.47;;;1.00;;
7969;SDS011;4030;52.362;9.206;2023-05-16T01:49:45;2.10;;;1.10;;
7969;SDS011;4030;52.362;9.206;2023-05-16T01:52:26;1.92;;;1.00;;
7969;SDS011;4030;52.362;9.206;2023-05-16T01:55:03;1.23;;;0.80;;
7969;SDS011;4030;52.362;9.206;2023-05-16T01:57:37;1.83;;;0.98;;
7969;SDS011;4030;52.362;9.206;2023-05-16T02:00:05;1.58;;;0.90;;
7969;SDS011;4030;52.362;9.206;2023-05-16T02:02:32;2.33;;;1.00;;
7969;SDS011;4030;52.362;9.206;2023-05-16T02:04:58;1.92;;;1.08;;
7969;SDS011;4030;52.362;9.206;2023-05-16T02:07:23;0.82;;;0.73;;
7969;SDS011;4030;52.362;9.206;2023-05-16T02:09:49;1.25;;;0.90;;
7969;SDS011;4030;52.362;9.206;2023-05-16T02:12:16;1.55;;;1.00;;
7969;SDS011;4030;52.362;9.206;2023-05-16T02:14:42;2.38;;;0.80;;
7969;SDS011;4030;52.362;9.206;2023-05-16T02:17:08;2.13;;;0.80;;
7969;SDS011;4030;52.362;9.206;2023-05-16T02:19:33;1.83;;;1.00;;
7969;SDS011;4030;52.362;9.206;2023-05-16T02:22:00;1.65;;;0.93;;
7969;SDS011;4030;52.362;9.206;2023-05-16T02:24:26;1.83;;;0.90;;
7969;SDS011;4030;52.362;9.206;2023-05-16T02:26:52;1.77;;;1.13;;
7969;SDS011;4030;52.362;9.206;2023-05-16T02:29:18;1.98;;;0.90;;
7969;SDS011;4030;52.362;9.206;2023-05-16T02:31:44;2.03;;;1.00;;
7969;SDS011;4030;52.362;9.206;2023-05-16T02:34:11;2.17;;;1.00;;
7969;SDS011;4030;52.362;9.206;2023-05-16T02:36:36;2.28;;;0.85;;
7969;SDS011;4030;52.362;9.206;2023-05-16T02:39:02;2.05;;;0.80;;
7969;SDS011;4030;52.362;9.206;2023-05-16T02:41:29;2.75;;;1.00;;
7969;SDS011;4030;52.362;9.206;2023-05-16T02:43:55;1.98;;;1.00;;
7969;SDS011;4030;52.362;9.206;2023-05-16T02:46:22;1.90;;;0.80;;
7969;SDS011;4030;52.362;9.206;2023-05-16T02:48:53;1.13;;;0.80;;
7969;SDS011;4030;52.362;9.206;2023-05-16T02:51:19;3.10;;;1.00;;
7969;SDS011;4030;52.362;9.206;2023-05-16T02:53:46;1.48;;;0.93;;
7969;SDS011;4030;52.362;9.206;2023-05-16T02:56:12;2.25;;;0.90;;
7969;SDS011;4030;52.362;9.206;2023-05-16T02:58:38;2.38;;;1.05;;
7969;SDS011;4030;52.362;9.206;2023-05-16T03:01:04;1.73;;;0.90;;
7969;SDS011;4030;52.362;9.206;2023-05-16T03:03:30;2.20;;;1.00;;
7969;SDS011;4030;52.362;9.206;2023-05-16T03:05:57;2.70;;;0.80;;
7969;SDS011;4030;52.362;9.206;2023-05-16T03:08:23;2.05;;;0.90;;
7969;SDS011;4030;52.362;9.206;2023-05-16T03:10:49;2.78;;;1.00;;
7969;SDS011;4030;52.362;9.206;2023-05-16T03:13:15;1.65;;;0.90;;
7969;SDS011;4030;52.362;9.206;2023-05-16T03:15:41;2.30;;;0.88;;
7969;SDS011;4030;52.362;9.206;2023-05-16T03:18:07;2.75;;;1.02;;
7969;SDS011;4030;52.362;9.206;2023-05-16T03:20:33;2.10;;;0.95;;
7969;SDS011;4030;52.362;9.206;2023-05-16T03:22:59;2.22;;;1.05;;
7969;SDS011;4030;52.362;9.206;2023-05-16T03:25:25;2.50;;;1.10;;
7969;SDS011;4030;52.362;9.206;2023-05-16T03:27:52;3.15;;;1.02;;
7969;SDS011;4030;52.362;9.206;2023-05-16T03:30:18;2.00;;;0.75;;
7969;SDS011;4030;52.362;9.206;2023-05-16T03:32:45;2.10;;;0.98;;
7969;SDS011;4030;52.362;9.206;2023-05-16T03:35:10;1.95;;;0.82;;
7969;SDS011;4030;52.362;9.206;2023-05-16T03:37:36;2.60;;;1.20;;
7969;SDS011;4030;52.362;9.206;2023-05-16T03:40:03;2.35;;;1.20;;
7969;SDS011;4030;52.362;9.206;2023-05-16T03:42:30;3.72;;;1.38;;
7969;SDS011;4030;52.362;9.206;2023-05-16T03:44:56;2.55;;;1.00;;
7969;SDS011;4030;52.362;9.206;2023-05-16T03:47:22;3.58;;;1.13;;
7969;SDS011;4030;52.362;9.206;2023-05-16T03:49:48;1.52;;;1.00;;
7969;SDS011;4030;52.362;9.206;2023-05-16T03:52:13;2.72;;;1.17;;
7969;SDS011;4030;52.362;9.206;2023-05-16T03:54:39;3.13;;;1.20;;
7969;SDS011;4030;52.362;9.206;2023-05-16T03:57:05;3.17;;;1.13;;
7969;SDS011;4030;52.362;9.206;2023-05-16T03:59:31;2.75;;;1.25;;
7969;SDS011;4030;52.362;9.206;2023-05-16T04:01:58;3.30;;;1.20;;
7969;SDS011;4030;52.362;9.206;2023-05-16T04:04:24;1.95;;;0.95;;
7969;SDS011;4030;52.362;9.206;2023-05-16T04:06:50;3.70;;;1.35;;
7969;SDS011;4030;52.362;9.206;2023-05-16T04:09:15;2.85;;;1.20;;
7969;SDS011;4030;52.362;9.206;2023-05-16T04:11:41;3.03;;;1.15;;
7969;SDS011;4030;52.362;9.206;2023-05-16T04:14:07;2.60;;;1.17;;
7969;SDS011;4030;52.362;9.206;2023-05-16T04:16:33;3.83;;;1.30;;
7969;SDS011;4030;52.362;9.206;2023-05-16T04:18:58;4.70;;;1.27;;
7969;SDS011;4030;52.362;9.206;2023-05-16T04:21:24;3.35;;;1.40;;
7969;SDS011;4030;52.362;9.206;2023-05-16T04:23:49;4.90;;;1.73;;
7969;SDS011;4030;52.362;9.206;2023-05-16T04:26:16;5.20;;;1.60;;
7969;SDS011;4030;52.362;9.206;2023-05-16T04:28:41;4.85;;;1.58;;
7969;SDS011;4030;52.362;9.206;2023-05-16T04:31:07;2.92;;;1.30;;
7969;SDS011;4030;52.362;9.206;2023-05-16T04:33:33;4.47;;;1.50;;
7969;SDS011;4030;52.362;9.206;2023-05-16T04:35:59;3.15;;;1.30;;
7969;SDS011;4030;52.362;9.206;2023-05-16T04:38:25;4.18;;;1.58;;
7969;SDS011;4030;52.362;9.206;2023-05-16T04:40:50;5.28;;;1.90;;
7969;SDS011;4030;52.362;9.206;2023-05-16T04:43:17;2.58;;;1.35;;
7969;SDS011;4030;52.362;9.206;2023-05-16T04:45:43;3.90;;;1.52;;
7969;SDS011;4030;52.362;9.206;2023-05-16T04:48:09;5.68;;;1.65;;
7969;SDS011;4030;52.362;9.206;2023-05-16T04:50:36;4.45;;;1.67;;
7969;SDS011;4030;52.362;9.206;2023-05-16T04:53:02;4.30;;;1.65;;
7969;SDS011;4030;52.362;9.206;2023-05-16T04:55:27;3.83;;;1.60;;
7969;SDS011;4030;52.362;9.206;2023-05-16T04:57:53;4.55;;;1.67;;
7969;SDS011;4030;52.362;9.206;2023-05-16T05:00:19;5.70;;;2.20;;
7969;SDS011;4030;52.362;9.206;2023-05-16T05:02:45;5.57;;;1.80;;
7969;SDS011;4030;52.362;9.206;2023-05-16T05:05:10;4.93;;;1.77;;
7969;SDS011;4030;52.362;9.206;2023-05-16T05:07:36;4.75;;;1.60;;
7969;SDS011;4030;52.362;9.206;2023-05-16T05:10:02;5.85;;;1.88;;
7969;SDS011;4030;52.362;9.206;2023-05-16T05:12:29;4.00;;;1.40;;
7969;SDS011;4030;52.362;9.206;2023-05-16T05:14:55;5.13;;;2.00;;
7969;SDS011;4030;52.362;9.206;2023-05-16T05:17:21;3.83;;;1.65;;
7969;SDS011;4030;52.362;9.206;2023-05-16T05:19:47;4.03;;;1.45;;
7969;SDS011;4030;52.362;9.206;2023-05-16T05:22:13;5.28;;;1.52;;
7969;SDS011;4030;52.362;9.206;2023-05-16T05:24:39;4.55;;;1.40;;
7969;SDS011;4030;52.362;9.206;2023-05-16T05:27:05;4.82;;;1.70;;
7969;SDS011;4030;52.362;9.206;2023-05-16T05:29:31;3.90;;;1.60;;
7969;SDS011;4030;52.362;9.206;2023-05-16T05:31:56;4.47;;;1.58;;
7969;SDS011;4030;52.362;9.206;2023-05-16T05:34:22;5.95;;;2.15;;
7969;SDS011;4030;52.362;9.206;2023-05-16T05:36:48;4.90;;;1.67;;
7969;SDS011;4030;52.362;9.206;2023-05-16T05:39:14;5.70;;;2.00;;
7969;SDS011;4030;52.362;9.206;2023-05-16T05:41:40;5.32;;;1.63;;
7969;SDS011;4030;52.362;9.206;2023-05-16T05:44:06;4.30;;;1.55;;
7969;SDS011;4030;52.362;9.206;2023-05-16T05:46:31;5.95;;;2.13;;
7969;SDS011;4030;52.362;9.206;2023-05-16T05:48:58;4.85;;;1.70;;
7969;SDS011;4030;52.362;9.206;2023-05-16T05:51:24;4.90;;;1.73;;
7969;SDS011;4030;52.362;9.206;2023-05-16T05:53:51;4.18;;;1.63;;
7969;SDS011;4030;52.362;9.206;2023-05-16T05:56:17;5.38;;;1.75;;
7969;SDS011;4030;52.362;9.206;2023-05-16T05:58:42;4.53;;;1.55;;
7969;SDS011;4030;52.362;9.206;2023-05-16T06:01:09;6.15;;;1.88;;
7969;SDS011;4030;52.362;9.206;2023-05-16T06:03:35;5.72;;;1.55;;
7969;SDS011;4030;52.362;9.206;2023-05-16T06:06:02;5.90;;;1.80;;
7969;SDS011;4030;52.362;9.206;2023-05-16T06:08:28;5.82;;;1.80;;
7969;SDS011;4030;52.362;9.206;2023-05-16T06:10:54;3.78;;;1.45;;
7969;SDS011;4030;52.362;9.206;2023-05-16T06:13:19;4.28;;;1.63;;
7969;SDS011;4030;52.362;9.206;2023-05-16T06:15:52;4.57;;;1.63;;
7969;SDS011;4030;52.362;9.206;2023-05-16T06:18:18;4.32;;;1.60;;
7969;SDS011;4030;52.362;9.206;2023-05-16T06:20:44;4.53;;;1.60;;
7969;SDS011;4030;52.362;9.206;2023-05-16T06:23:11;4.43;;;1.73;;
7969;SDS011;4030;52.362;9.206;2023-05-16T06:25:36;4.68;;;1.73;;
7969;SDS011;4030;52.362;9.206;2023-05-16T06:28:02;5.65;;;1.90;;
7969;SDS011;4030;52.362;9.206;2023-05-16T06:30:28;5.05;;;1.77;;
7969;SDS011;4030;52.362;9.206;2023-05-16T06:32:53;5.68;;;1.80;;
7969;SDS011;4030;52.362;9.206;2023-05-16T06:35:19;6.40;;;1.88;;
7969;SDS011;4030;52.362;9.206;2023-05-16T06:37:45;5.38;;;1.77;;
7969;SDS011;4030;52.362;9.206;2023-05-16T06:40:10;6.13;;;1.88;;
7969;SDS011;4030;52.362;9.206;2023-05-16T06:42:37;5.65;;;1.63;;
7969;SDS011;4030;52.362;9.206;2023-05-16T06:45:02;4.30;;;1.50;;
7969;SDS011;4030;52.362;9.206;2023-05-16T06:47:28;7.68;;;1.75;;
7969;SDS011;4030;52.362;9.206;2023-05-16T06:49:54;5.63;;;1.92;;
7969;SDS011;4030;52.362;9.206;2023-05-16T06:52:20;3.75;;;1.50;;
7969;SDS011;4030;52.362;9.206;2023-05-16T06:54:46;4.30;;;1.60;;
7969;SDS011;4030;52.362;9.206;2023-05-16T06:57:12;3.70;;;1.48;;
7969;SDS011;4030;52.362;9.206;2023-05-16T06:59:37;5.22;;;1.70;;
7969;SDS011;4030;52.362;9.206;2023-05-16T07:02:04;6.18;;;2.17;;
7969;SDS011;4030;52.362;9.206;2023-05-16T07:04:30;4.78;;;1.55;;
7969;SDS011;4030;52.362;9.206;2023-05-16T07:06:56;4.35;;;1.80;;
7969;SDS011;4030;52.362;9.206;2023-05-16T07:09:22;6.65;;;2.03;;
7969;SDS011;4030;52.362;9.206;2023-05-16T07:11:48;4.65;;;1.70;;
7969;SDS011;4030;52.362;9.206;2023-05-16T07:14:13;5.00;;;1.73;;
7969;SDS011;4030;52.362;9.206;2023-05-16T07:16:39;5.00;;;1.73;;
7969;SDS011;4030;52.362;9.206;2023-05-16T07:19:05;5.25;;;1.60;;
7969;SDS011;4030;52.362;9.206;2023-05-16T07:21:30;4.68;;;1.70;;
7969;SDS011;4030;52.362;9.206;2023-05-16T07:23:56;5.30;;;1.90;;
7969;SDS011;4030;52.362;9.206;2023-05-16T07:26:22;4.20;;;1.50;;
7969;SDS011;4030;52.362;9.206;2023-05-16T07:28:50;3.25;;;1.48;;
7969;SDS011;4030;52.362;9.206;2023-05-16T07:31:16;5.30;;;1.70;;
7969;SDS011;4030;52.362;9.206;2023-05-16T07:33:43;7.32;;;1.98;;
7969;SDS011;4030;52.362;9.206;2023-05-16T07:36:10;5.68;;;1.60;;
7969;SDS011;4030;52.362;9.206;2023-05-16T07:38:37;5.43;;;1.50;;
7969;SDS011;4030;52.362;9.206;2023-05-16T07:41:03;5.78;;;1.80;;
7969;SDS011;4030;52.362;9.206;2023-05-16T07:43:28;3.25;;;1.38;;
7969;SDS011;4030;52.362;9.206;2023-05-16T07:45:54;5.55;;;1.75;;
7969;SDS011;4030;52.362;9.206;2023-05-16T07:48:20;4.03;;;1.50;;
7969;SDS011;4030;52.362;9.206;2023-05-16T07:50:45;4.60;;;1.60;;
7969;SDS011;4030;52.362;9.206;2023-05-16T07:53:11;4.68;;;1.45;;
7969;SDS011;4030;52.362;9.206;2023-05-16T07:55:37;4.40;;;1.50;;
7969;SDS011;4030;52.362;9.206;2023-05-16T07:58:02;4.30;;;1.30;;
7969;SDS011;4030;52.362;9.206;2023-05-16T08:00:28;4.45;;;1.45;;
7969;SDS011;4030;52.362;9.206;2023-05-16T08:02:54;2.72;;;1.10;;
7969;SDS011;4030;52.362;9.206;2023-05-16T08:05:20;3.92;;;1.50;;
7969;SDS011;4030;52.362;9.206;2023-05-16T08:07:45;2.83;;;1.17;;
7969;SDS011;4030;52.362;9.206;2023-05-16T08:10:11;4.05;;;1.40;;
7969;SDS011;4030;52.362;9.206;2023-05-16T08:12:37;3.47;;;1.30;;
7969;SDS011;4030;52.362;9.206;2023-05-16T08:15:03;3.70;;;1.40;;
7969;SDS011;4030;52.362;9.206;2023-05-16T08:17:29;4.18;;;1.30;;
7969;SDS011;4030;52.362;9.206;2023-05-16T08:19:55;4.13;;;1.58;;
7969;SDS011;4030;52.362;9.206;2023-05-16T08:22:20;3.53;;;1.50;;
7969;SDS011;4030;52.362;9.206;2023-05-16T08:24:46;4.03;;;1.45;;
7969;SDS011;4030;52.362;9.206;2023-05-16T08:27:12;3.63;;;1.25;;
7969;SDS011;4030;52.362;9.206;2023-05-16T08:29:37;5.13;;;1.50;;
7969;SDS011;4030;52.362;9.206;2023-05-16T08:32:04;2.45;;;1.27;;
7969;SDS011;4030;52.362;9.206;2023-05-16T08:34:30;2.92;;;1.30;;
7969;SDS011;4030;52.362;9.206;2023-05-16T08:36:56;4.30;;;1.48;;
7969;SDS011;4030;52.362;9.206;2023-05-16T08:39:22;3.75;;;1.40;;
7969;SDS011;4030;52.362;9.206;2023-05-16T08:41:47;3.17;;;1.35;;
7969;SDS011;4030;52.362;9.206;2023-05-16T08:44:13;5.03;;;1.45;;
7969;SDS011;4030;52.362;9.206;2023-05-16T08:46:47;4.57;;;1.40;;
7969;SDS011;4030;52.362;9.206;2023-05-16T08:49:19;2.55;;;1.20;;
7969;SDS011;4030;52.362;9.206;2023-05-16T08:51:45;2.38;;;1.10;;
7969;SDS011;4030;52.362;9.206;2023-05-16T08:54:13;2.13;;;1.02;;
7969;SDS011;4030;52.362;9.206;2023-05-16T08:56:40;2.83;;;1.20;;
7969;SDS011;4030;52.362;9.206;2023-05-16T08:59:06;2.60;;;1.15;;
7969;SDS011;4030;52.362;9.206;2023-05-16T09:01:32;3.22;;;1.05;;
7969;SDS011;4030;52.362;9.206;2023-05-16T09:03:58;4.22;;;1.27;;
7969;SDS011;4030;52.362;9.206;2023-05-16T09:06:25;3.47;;;1.20;;
7969;SDS011;4030;52.362;9.206;2023-05-16T09:08:52;2.95;;;1.00;;
7969;SDS011;4030;52.362;9.206;2023-05-16T09:11:18;2.47;;;1.10;;
7969;SDS011;4030;52.362;9.206;2023-05-16T09:13:45;4.07;;;1.40;;
7969;SDS011;4030;52.362;9.206;2023-05-16T09:16:12;3.08;;;1.17;;
7969;SDS011;4030;52.362;9.206;2023-05-16T09:18:44;3.20;;;1.20;;
7969;SDS011;4030;52.362;9.206;2023-05-16T09:21:18;3.28;;;0.93;;
7969;SDS011;4030;52.362;9.206;2023-05-16T09:23:43;2.45;;;1.05;;
7969;SDS011;4030;52.362;9.206;2023-05-16T09:26:12;3.75;;;1.05;;
7969;SDS011;4030;52.362;9.206;2023-05-16T09:28:39;3.28;;;1.00;;
7969;SDS011;4030;52.362;9.206;2023-05-16T09:33:46;1.45;;;0.93;;
7969;SDS011;4030;52.362;9.206;2023-05-16T09:36:15;3.03;;;1.00;;
7969;SDS011;4030;52.362;9.206;2023-05-16T09:38:41;2.38;;;1.00;;
7969;SDS011;4030;52.362;9.206;2023-05-16T09:41:08;3.10;;;1.00;;
7969;SDS011;4030;52.362;9.206;2023-05-16T09:43:36;2.47;;;0.82;;
7969;SDS011;4030;52.362;9.206;2023-05-16T09:46:07;1.58;;;0.80;;
7969;SDS011;4030;52.362;9.206;2023-05-16T09:48:33;3.22;;;0.95;;
7969;SDS011;4030;52.362;9.206;2023-05-16T09:50:59;2.58;;;0.95;;
7969;SDS011;4030;52.362;9.206;2023-05-16T09:53:29;4.32;;;1.20;;
7969;SDS011;4030;52.362;9.206;2023-05-16T09:56:00;2.08;;;1.00;;
7969;SDS011;4030;52.362;9.206;2023-05-16T09:58:38;1.92;;;1.02;;
7969;SDS011;4030;52.362;9.206;2023-05-16T10:01:06;2.78;;;1.00;;
7969;SDS011;4030;52.362;9.206;2023-05-16T10:03:34;3.17;;;1.27;;
7969;SDS011;4030;52.362;9.206;2023-05-16T10:06:02;3.90;;;1.42;;
7969;SDS011;4030;52.362;9.206;2023-05-16T10:08:33;3.25;;;1.50;;
7969;SDS011;4030;52.362;9.206;2023-05-16T10:11:01;2.90;;;1.42;;
7969;SDS011;4030;52.362;9.206;2023-05-16T10:13:29;4.35;;;1.40;;
7969;SDS011;4030;52.362;9.206;2023-05-16T10:15:58;3.28;;;1.63;;
7969;SDS011;4030;52.362;9.206;2023-05-16T10:18:28;3.10;;;1.60;;
7969;SDS011;4030;52.362;9.206;2023-05-16T10:20:56;4.53;;;1.67;;
7969;SDS011;4030;52.362;9.206;2023-05-16T10:23:42;4.70;;;1.67;;
7969;SDS011;4030;52.362;9.206;2023-05-16T10:26:12;5.03;;;1.63;;
7969;SDS011;4030;52.362;9.206;2023-05-16T10:28:40;3.38;;;1.40;;
7969;SDS011;4030;52.362;9.206;2023-05-16T10:31:06;4.38;;;1.60;;
7969;SDS011;4030;52.362;9.206;2023-05-16T10:33:34;4.95;;;1.42;;
7969;SDS011;4030;52.362;9.206;2023-05-16T10:36:00;2.90;;;1.48;;
7969;SDS011;4030;52.362;9.206;2023-05-16T10:38:29;4.30;;;1.38;;
7969;SDS011;4030;52.362;9.206;2023-05-16T10:40:55;3.88;;;1.40;;
7969;SDS011;4030;52.362;9.206;2023-05-16T10:43:22;4.93;;;1.67;;
7969;SDS011;4030;52.362;9.206;2023-05-16T10:45:58;2.22;;;1.13;;
7969;SDS011;4030;52.362;9.206;2023-05-16T10:48:29;2.78;;;1.25;;
7969;SDS011;4030;52.362;9.206;2023-05-16T10:51:00;2.80;;;1.20;;
7969;SDS011;4030;52.362;9.206;2023-05-16T10:53:29;4.78;;;1.60;;
7969;SDS011;4030;52.362;9.206;2023-05-16T10:58:23;3.35;;;1.23;;
7969;SDS011;4030;52.362;9.206;2023-05-16T11:01:21;2.75;;;1.10;;
7969;SDS011;4030;52.362;9.206;2023-05-16T11:06:27;2.90;;;1.38;;
7969;SDS011;4030;52.362;9.206;2023-05-16T11:09:06;3.03;;;1.38;;
7969;SDS011;4030;52.362;9.206;2023-05-16T11:11:53;3.13;;;1.45;;
7969;SDS011;4030;52.362;9.206;2023-05-16T11:14:25;3.72;;;1.63;;
7969;SDS011;4030;52.362;9.206;2023-05-16T11:17:01;3.75;;;1.50;;
7969;SDS011;4030;52.362;9.206;2023-05-16T11:22:26;3.83;;;1.40;;
7969;SDS011;4030;52.362;9.206;2023-05-16T11:27:34;2.88;;;1.30;;
7969;SDS011;4030;52.362;9.206;2023-05-16T11:32:41;3.28;;;1.58;;
7969;SDS011;4030;52.362;9.206;2023-05-16T11:35:10;2.92;;;1.08;;
7969;SDS011;4030;52.362;9.206;2023-05-16T11:37:39;4.28;;;1.50;;
7969;SDS011;4030;52.362;9.206;2023-05-16T11:40:06;2.95;;;1.23;;
7969;SDS011;4030;52.362;9.206;2023-05-16T11:42:35;2.58;;;1.30;;
7969;SDS011;4030;52.362;9.206;2023-05-16T11:45:11;1.55;;;1.10;;
7969;SDS011;4030;52.362;9.206;2023-05-16T11:47:49;1.65;;;1.02;;
7969;SDS011;4030;52.362;9.206;2023-05-16T11:50:16;3.28;;;1.23;;
7969;SDS011;4030;52.362;9.206;2023-05-16T11:52:48;3.22;;;1.35;;
7969;SDS011;4030;52.362;9.206;2023-05-16T11:55:36;3.45;;;1.17;;
7969;SDS011;4030;52.362;9.206;2023-05-16T11:58:03;3.35;;;1.20;;
7969;SDS011;4030;52.362;9.206;2023-05-16T12:00:28;2.75;;;1.20;;
7969;SDS011;4030;52.362;9.206;2023-05-16T12:02:58;3.15;;;1.33;;
7969;SDS011;4030;52.362;9.206;2023-05-16T12:05:28;5.03;;;1.35;;
7969;SDS011;4030;52.362;9.206;2023-05-16T12:07:55;3.47;;;1.20;;
7969;SDS011;4030;52.362;9.206;2023-05-16T12:10:20;3.25;;;1.23;;
7969;SDS011;4030;52.362;9.206;2023-05-16T12:12:47;3.42;;;1.30;;
7969;SDS011;4030;52.362;9.206;2023-05-16T12:15:16;4.57;;;1.25;;
7969;SDS011;4030;52.362;9.206;2023-05-16T12:17:42;5.80;;;1.50;;
7969;SDS011;4030;52.362;9.206;2023-05-16T12:20:09;7.20;;;1.60;;
7969;SDS011;4030;52.362;9.206;2023-05-16T12:22:38;4.28;;;1.25;;
7969;SDS011;4030;52.362;9.206;2023-05-16T12:25:17;5.13;;;1.52;;
7969;SDS011;4030;52.362;9.206;2023-05-16T12:27:53;3.03;;;0.98;;
7969;SDS011;4030;52.362;9.206;2023-05-16T12:30:21;2.80;;;1.05;;
7969;SDS011;4030;52.362;9.206;2023-05-16T12:33:01;6.55;;;1.38;;
7969;SDS011;4030;52.362;9.206;2023-05-16T12:35:33;3.20;;;1.20;;
7969;SDS011;4030;52.362;9.206;2023-05-16T12:38:03;4.00;;;1.30;;
7969;SDS011;4030;52.362;9.206;2023-05-16T12:40:30;3.80;;;1.13;;
7969;SDS011;4030;52.362;9.206;2023-05-16T12:42:56;2.20;;;1.00;;
7969;SDS011;4030;52.362;9.206;2023-05-16T12:45:22;2.75;;;1.25;;
7969;SDS011;4030;52.362;9.206;2023-05-16T12:47:48;2.75;;;1.05;;
7969;SDS011;4030;52.362;9.206;2023-05-16T12:50:14;1.90;;;1.00;;
7969;SDS011;4030;52.362;9.206;2023-05-16T12:52:48;5.00;;;1.33;;
7969;SDS011;4030;52.362;9.206;2023-05-16T12:55:15;3.45;;;1.10;;
7969;SDS011;4030;52.362;9.206;2023-05-16T12:57:42;2.97;;;1.10;;
7969;SDS011;4030;52.362;9.206;2023-05-16T13:00:10;3.55;;;1.15;;
7969;SDS011;4030;52.362;9.206;2023-05-16T13:02:37;1.60;;;0.82;;
7969;SDS011;4030;52.362;9.206;2023-05-16T13:05:03;2.75;;;1.15;;
7969;SDS011;4030;52.362;9.206;2023-05-16T13:07:31;2.38;;;1.00;;
7969;SDS011;4030;52.362;9.206;2023-05-16T13:09:58;2.78;;;1.10;;
7969;SDS011;4030;52.362;9.206;2023-05-16T13:12:23;1.95;;;0.90;;
7969;SDS011;4030;52.362;9.206;2023-05-16T13:14:51;5.00;;;1.30;;
7969;SDS011;4030;52.362;9.206;2023-05-16T13:17:17;3.63;;;1.30;;
7969;SDS011;4030;52.362;9.206;2023-05-16T13:19:43;3.55;;;1.10;;
7969;SDS011;4030;52.362;9.206;2023-05-16T13:22:09;2.58;;;1.02;;
7969;SDS011;4030;52.362;9.206;2023-05-16T13:24:35;3.03;;;1.10;;
7969;SDS011;4030;52.362;9.206;2023-05-16T13:27:00;2.40;;;0.90;;
7969;SDS011;4030;52.362;9.206;2023-05-16T13:29:26;1.70;;;0.75;;
7969;SDS011;4030;52.362;9.206;2023-05-16T13:31:53;1.80;;;0.73;;
7969;SDS011;4030;52.362;9.206;2023-05-16T13:34:18;2.20;;;0.88;;
7969;SDS011;4030;52.362;9.206;2023-05-16T13:36:44;1.90;;;0.90;;
7969;SDS011;4030;52.362;9.206;2023-05-16T13:39:11;2.28;;;0.90;;
7969;SDS011;4030;52.362;9.206;2023-05-16T13:41:37;2.72;;;1.00;;
7969;SDS011;4030;52.362;9.206;2023-05-16T13:44:04;2.55;;;0.80;;
7969;SDS011;4030;52.362;9.206;2023-05-16T13:46:30;2.03;;;0.85;;
7969;SDS011;4030;52.362;9.206;2023-05-16T13:48:56;1.33;;;0.98;;
7969;SDS011;4030;52.362;9.206;2023-05-16T13:51:22;1.45;;;0.80;;
7969;SDS011;4030;52.362;9.206;2023-05-16T13:53:47;3.03;;;0.80;;
7969;SDS011;4030;52.362;9.206;2023-05-16T13:56:13;1.42;;;0.80;;
7969;SDS011;4030;52.362;9.206;2023-05-16T13:58:39;1.80;;;0.82;;
7969;SDS011;4030;52.362;9.206;2023-05-16T14:01:05;2.47;;;0.70;;
7969;SDS011;4030;52.362;9.206;2023-05-16T14:03:31;1.35;;;0.70;;
7969;SDS011;4030;52.362;9.206;2023-05-16T14:05:57;1.77;;;0.80;;
7969;SDS011;4030;52.362;9.206;2023-05-16T14:08:22;2.65;;;0.80;;
7969;SDS011;4030;52.362;9.206;2023-05-16T14:10:48;3.25;;;0.80;;
7969;SDS011;4030;52.362;9.206;2023-05-16T14:13:14;1.50;;;0.80;;
7969;SDS011;4030;52.362;9.206;2023-05-16T14:15:40;1.90;;;0.90;;
7969;SDS011;4030;52.362;9.206;2023-05-16T14:18:05;1.88;;;0.90;;
7969;SDS011;4030;52.362;9.206;2023-05-16T14:20:32;2.75;;;0.80;;
7969;SDS011;4030;52.362;9.206;2023-05-16T14:22:57;1.90;;;0.90;;
7969;SDS011;4030;52.362;9.206;2023-05-16T14:25:23;1.30;;;0.70;;
7969;SDS011;4030;52.362;9.206;2023-05-16T14:27:49;1.90;;;1.00;;
7969;SDS011;4030;52.362;9.206;2023-05-16T14:30:15;1.10;;;0.60;;
7969;SDS011;4030;52.362;9.206;2023-05-16T14:32:41;1.85;;;0.80;;
7969;SDS011;4030;52.362;9.206;2023-05-16T14:35:07;2.70;;;0.90;;
7969;SDS011;4030;52.362;9.206;2023-05-16T14:37:36;2.22;;;0.85;;
7969;SDS011;4030;52.362;9.206;2023-05-16T14:40:01;1.77;;;0.98;;
7969;SDS011;4030;52.362;9.206;2023-05-16T14:42:29;2.03;;;0.88;;
7969;SDS011;4030;52.362;9.206;2023-05-16T14:44:55;2.05;;;0.77;;
7969;SDS011;4030;52.362;9.206;2023-05-16T14:47:20;2.20;;;0.77;;
7969;SDS011;4030;52.362;9.206;2023-05-16T14:49:48;1.77;;;0.70;;
7969;SDS011;4030;52.362;9.206;2023-05-16T14:52:13;2.05;;;0.80;;
7969;SDS011;4030;52.362;9.206;2023-05-16T14:54:39;1.30;;;0.77;;
7969;SDS011;4030;52.362;9.206;2023-05-16T14:57:05;3.42;;;0.70;;
7969;SDS011;4030;52.362;9.206;2023-05-16T14:59:31;1.38;;;0.73;;
7969;SDS011;4030;52.362;9.206;2023-05-16T15:01:57;1.80;;;0.80;;
7969;SDS011;4030;52.362;9.206;2023-05-16T15:04:23;2.10;;;0.90;;
7969;SDS011;4030;52.362;9.206;2023-05-16T15:06:49;2.15;;;0.90;;
7969;SDS011;4030;52.362;9.206;2023-05-16T15:09:14;3.25;;;1.00;;
7969;SDS011;4030;52.362;9.206;2023-05-16T15:11:41;1.58;;;0.70;;
7969;SDS011;4030;52.362;9.206;2023-05-16T15:14:07;1.20;;;0.60;;
7969;SDS011;4030;52.362;9.206;2023-05-16T15:16:33;1.38;;;0.60;;
7969;SDS011;4030;52.362;9.206;2023-05-16T15:18:59;3.10;;;0.75;;
7969;SDS011;4030;52.362;9.206;2023-05-16T15:21:24;1.63;;;0.75;;
7969;SDS011;4030;52.362;9.206;2023-05-16T15:23:51;1.08;;;0.68;;
7969;SDS011;4030;52.362;9.206;2023-05-16T15:26:16;2.20;;;0.90;;
7969;SDS011;4030;52.362;9.206;2023-05-16T15:28:42;1.85;;;0.77;;
7969;SDS011;4030;52.362;9.206;2023-05-16T15:31:08;2.28;;;0.70;;
7969;SDS011;4030;52.362;9.206;2023-05-16T15:33:34;5.57;;;0.80;;
7969;SDS011;4030;52.362;9.206;2023-05-16T15:36:00;2.60;;;1.00;;
7969;SDS011;4030;52.362;9.206;2023-05-16T15:38:26;2.17;;;0.77;;
7969;SDS011;4030;52.362;9.206;2023-05-16T15:40:51;2.25;;;0.77;;
7969;SDS011;4030;52.362;9.206;2023-05-16T15:43:17;1.90;;;0.70;;
7969;SDS011;4030;52.362;9.206;2023-05-16T15:45:43;2.28;;;0.98;;